sensor_id;sensor_type;location;lat;lon;timestamp;P1;durP1;ratioP1;P2;durP2;ratioP2
15354;SDS011;7777;52.254;9.618;2022-10-16T00:01:22;1.13;;;0.70;;
15354;SDS011;7777;52.254;9.618;2022-10-16T00:03:54;2.97;;;1.23;;
15354;SDS011;7777;52.254;9.618;2022-10-16T00:06:22;4.10;;;1.00;;
15354;SDS011;7777;52.254;9.618;2022-10-16T00:08:48;2.37;;;0.80;;
15354;SDS011;7777;52.254;9.618;2022-10-16T00:11:16;2.40;;;0.70;;
15354;SDS011;7777;52.254;9.618;2022-10-16T00:13:47;2.17;;;0.90;;
15354;SDS011;7777;52.254;9.618;2022-10-16T00:16:16;7.50;;;1.07;;
15354;SDS011;7777;52.254;9.618;2022-10-16T00:18:42;4.07;;;1.17;;
15354;SDS011;7777;52.254;9.618;2022-10-16T00:21:10;2.60;;;0.70;;
15354;SDS011;7777;52.254;9.618;2022-10-16T00:23:39;5.50;;;1.50;;
15354;SDS011;7777;52.254;9.618;2022-10-16T00:26:07;4.47;;;1.00;;
15354;SDS011;7777;52.254;9.618;2022-10-16T00:28:38;2.90;;;0.90;;
15354;SDS011;7777;52.254;9.618;2022-10-16T00:31:05;8.23;;;1.23;;
15354;SDS011;7777;52.254;9.618;2022-10-16T00:33:34;4.77;;;0.97;;
15354;SDS011;7777;52.254;9.618;2022-10-16T00:36:01;6.77;;;1.50;;
15354;SDS011;7777;52.254;9.618;2022-10-16T00:38:28;3.33;;;1.07;;
15354;SDS011;7777;52.254;9.618;2022-10-16T00:40:54;4.97;;;1.13;;
15354;SDS011;7777;52.254;9.618;2022-10-16T00:43:40;1.93;;;0.90;;
15354;SDS011;7777;52.254;9.618;2022-10-16T00:46:26;2.40;;;0.90;;
15354;SDS011;7777;52.254;9.618;2022-10-16T00:49:12;2.77;;;1.07;;
15354;SDS011;7777;52.254;9.618;2022-10-16T00:51:41;1.10;;;0.80;;
15354;SDS011;7777;52.254;9.618;2022-10-16T00:54:29;2.13;;;0.80;;
15354;SDS011;7777;52.254;9.618;2022-10-16T00:56:57;3.10;;;0.90;;
15354;SDS011;7777;52.254;9.618;2022-10-16T00:59:31;2.57;;;1.17;;
15354;SDS011;7777;52.254;9.618;2022-10-16T01:02:02;1.60;;;1.00;;
15354;SDS011;7777;52.254;9.618;2022-10-16T01:05:03;4.33;;;0.83;;
15354;SDS011;7777;52.254;9.618;2022-10-16T01:13:01;5.67;;;1.87;;
15354;SDS011;7777;52.254;9.618;2022-10-16T01:15:47;2.97;;;1.57;;
15354;SDS011;7777;52.254;9.618;2022-10-16T01:18:37;1.47;;;1.20;;
15354;SDS011;7777;52.254;9.618;2022-10-16T01:21:13;5.43;;;1.60;;
15354;SDS011;7777;52.254;9.618;2022-10-16T01:29:41;1.63;;;1.20;;
15354;SDS011;7777;52.254;9.618;2022-10-16T01:32:13;5.03;;;1.77;;
15354;SDS011;7777;52.254;9.618;2022-10-16T01:35:05;3.17;;;1.60;;
15354;SDS011;7777;52.254;9.618;2022-10-16T01:38:12;2.93;;;1.33;;
15354;SDS011;7777;52.254;9.618;2022-10-16T01:41:25;4.50;;;1.57;;
15354;SDS011;7777;52.254;9.618;2022-10-16T01:44:26;3.77;;;1.60;;
15354;SDS011;7777;52.254;9.618;2022-10-16T01:46:48;3.57;;;1.17;;
15354;SDS011;7777;52.254;9.618;2022-10-16T01:49:17;4.33;;;1.53;;
15354;SDS011;7777;52.254;9.618;2022-10-16T01:51:46;3.87;;;1.50;;
15354;SDS011;7777;52.254;9.618;2022-10-16T01:54:15;4.40;;;1.80;;
15354;SDS011;7777;52.254;9.618;2022-10-16T01:56:43;2.83;;;1.40;;
15354;SDS011;7777;52.254;9.618;2022-10-16T01:59:13;3.73;;;1.57;;
15354;SDS011;7777;52.254;9.618;2022-10-16T02:01:45;4.70;;;1.50;;
15354;SDS011;7777;52.254;9.618;2022-10-16T02:04:19;4.73;;;1.40;;
15354;SDS011;7777;52.254;9.618;2022-10-16T02:07:02;5.00;;;1.50;;
15354;SDS011;7777;52.254;9.618;2022-10-16T02:09:29;5.27;;;1.47;;
15354;SDS011;7777;52.254;9.618;2022-10-16T02:11:56;8.13;;;1.70;;
15354;SDS011;7777;52.254;9.618;2022-10-16T02:14:24;4.93;;;1.50;;
15354;SDS011;7777;52.254;9.618;2022-10-16T02:16:51;5.70;;;1.60;;
15354;SDS011;7777;52.254;9.618;2022-10-16T02:19:17;4.30;;;1.57;;
15354;SDS011;7777;52.254;9.618;2022-10-16T02:21:49;3.73;;;1.30;;
15354;SDS011;7777;52.254;9.618;2022-10-16T02:24:31;3.10;;;1.40;;
15354;SDS011;7777;52.254;9.618;2022-10-16T02:27:42;4.63;;;1.30;;
15354;SDS011;7777;52.254;9.618;2022-10-16T02:32:56;4.63;;;1.47;;
15354;SDS011;7777;52.254;9.618;2022-10-16T02:35:26;5.00;;;1.40;;
15354;SDS011;7777;52.254;9.618;2022-10-16T02:37:53;4.60;;;1.50;;
15354;SDS011;7777;52.254;9.618;2022-10-16T02:40:20;7.10;;;2.07;;
15354;SDS011;7777;52.254;9.618;2022-10-16T02:42:49;9.43;;;1.67;;
15354;SDS011;7777;52.254;9.618;2022-10-16T02:45:16;4.00;;;1.50;;
15354;SDS011;7777;52.254;9.618;2022-10-16T02:47:43;4.77;;;1.70;;
15354;SDS011;7777;52.254;9.618;2022-10-16T02:50:09;2.33;;;1.07;;
15354;SDS011;7777;52.254;9.618;2022-10-16T02:52:34;2.73;;;1.37;;
15354;SDS011;7777;52.254;9.618;2022-10-16T02:55:00;5.13;;;1.67;;
15354;SDS011;7777;52.254;9.618;2022-10-16T02:57:26;3.83;;;1.70;;
15354;SDS011;7777;52.254;9.618;2022-10-16T02:59:52;5.70;;;1.63;;
15354;SDS011;7777;52.254;9.618;2022-10-16T03:02:18;4.87;;;1.50;;
15354;SDS011;7777;52.254;9.618;2022-10-16T03:04:43;10.03;;;1.97;;
15354;SDS011;7777;52.254;9.618;2022-10-16T03:07:09;3.63;;;1.60;;
15354;SDS011;7777;52.254;9.618;2022-10-16T03:09:35;3.17;;;1.17;;
15354;SDS011;7777;52.254;9.618;2022-10-16T03:12:01;2.10;;;1.20;;
15354;SDS011;7777;52.254;9.618;2022-10-16T03:14:27;10.57;;;1.60;;
15354;SDS011;7777;52.254;9.618;2022-10-16T03:16:52;1.93;;;1.33;;
15354;SDS011;7777;52.254;9.618;2022-10-16T03:19:18;3.50;;;1.43;;
15354;SDS011;7777;52.254;9.618;2022-10-16T03:21:45;6.23;;;1.63;;
15354;SDS011;7777;52.254;9.618;2022-10-16T03:24:11;8.20;;;2.13;;
15354;SDS011;7777;52.254;9.618;2022-10-16T03:26:36;2.10;;;1.17;;
15354;SDS011;7777;52.254;9.618;2022-10-16T03:29:02;3.40;;;1.07;;
15354;SDS011;7777;52.254;9.618;2022-10-16T03:31:29;12.30;;;1.77;;
15354;SDS011;7777;52.254;9.618;2022-10-16T03:33:55;6.63;;;1.73;;
15354;SDS011;7777;52.254;9.618;2022-10-16T03:36:21;2.90;;;1.57;;
15354;SDS011;7777;52.254;9.618;2022-10-16T03:38:47;2.87;;;1.00;;
15354;SDS011;7777;52.254;9.618;2022-10-16T03:41:13;4.90;;;2.00;;
15354;SDS011;7777;52.254;9.618;2022-10-16T03:43:39;7.73;;;1.87;;
15354;SDS011;7777;52.254;9.618;2022-10-16T03:46:04;5.23;;;2.07;;
15354;SDS011;7777;52.254;9.618;2022-10-16T03:48:30;5.80;;;1.73;;
15354;SDS011;7777;52.254;9.618;2022-10-16T03:50:57;4.43;;;1.47;;
15354;SDS011;7777;52.254;9.618;2022-10-16T03:53:23;3.90;;;1.50;;
15354;SDS011;7777;52.254;9.618;2022-10-16T03:55:49;5.87;;;1.37;;
15354;SDS011;7777;52.254;9.618;2022-10-16T03:58:15;2.77;;;1.40;;
15354;SDS011;7777;52.254;9.618;2022-10-16T04:00:42;2.30;;;1.37;;
15354;SDS011;7777;52.254;9.618;2022-10-16T04:03:10;3.03;;;1.50;;
15354;SDS011;7777;52.254;9.618;2022-10-16T04:05:36;10.17;;;1.67;;
15354;SDS011;7777;52.254;9.618;2022-10-16T04:08:02;6.03;;;1.60;;
15354;SDS011;7777;52.254;9.618;2022-10-16T04:10:28;3.20;;;1.10;;
15354;SDS011;7777;52.254;9.618;2022-10-16T04:12:54;6.43;;;1.70;;
15354;SDS011;7777;52.254;9.618;2022-10-16T04:15:21;3.97;;;1.37;;
15354;SDS011;7777;52.254;9.618;2022-10-16T04:17:50;4.80;;;1.20;;
15354;SDS011;7777;52.254;9.618;2022-10-16T04:20:17;2.03;;;1.00;;
15354;SDS011;7777;52.254;9.618;2022-10-16T04:22:43;3.23;;;1.50;;
15354;SDS011;7777;52.254;9.618;2022-10-16T04:25:09;5.90;;;1.33;;
15354;SDS011;7777;52.254;9.618;2022-10-16T04:27:36;3.23;;;1.30;;
15354;SDS011;7777;52.254;9.618;2022-10-16T04:30:03;2.50;;;1.83;;
15354;SDS011;7777;52.254;9.618;2022-10-16T04:32:29;5.03;;;1.53;;
15354;SDS011;7777;52.254;9.618;2022-10-16T04:34:55;3.43;;;1.53;;
15354;SDS011;7777;52.254;9.618;2022-10-16T04:37:25;3.63;;;1.57;;
15354;SDS011;7777;52.254;9.618;2022-10-16T04:39:52;2.47;;;1.60;;
15354;SDS011;7777;52.254;9.618;2022-10-16T04:42:19;1.80;;;1.47;;
15354;SDS011;7777;52.254;9.618;2022-10-16T04:44:46;5.70;;;1.67;;
15354;SDS011;7777;52.254;9.618;2022-10-16T04:47:11;4.50;;;1.10;;
15354;SDS011;7777;52.254;9.618;2022-10-16T04:49:38;4.43;;;1.50;;
15354;SDS011;7777;52.254;9.618;2022-10-16T04:52:04;4.50;;;1.53;;
15354;SDS011;7777;52.254;9.618;2022-10-16T04:54:30;6.87;;;1.87;;
15354;SDS011;7777;52.254;9.618;2022-10-16T04:56:55;2.47;;;1.67;;
15354;SDS011;7777;52.254;9.618;2022-10-16T04:59:21;3.93;;;1.60;;
15354;SDS011;7777;52.254;9.618;2022-10-16T05:01:48;2.60;;;1.57;;
15354;SDS011;7777;52.254;9.618;2022-10-16T05:04:14;6.67;;;1.77;;
15354;SDS011;7777;52.254;9.618;2022-10-16T05:06:40;3.60;;;1.80;;
15354;SDS011;7777;52.254;9.618;2022-10-16T05:09:07;7.00;;;1.77;;
15354;SDS011;7777;52.254;9.618;2022-10-16T05:11:33;5.23;;;1.53;;
15354;SDS011;7777;52.254;9.618;2022-10-16T05:13:59;4.93;;;1.83;;
15354;SDS011;7777;52.254;9.618;2022-10-16T05:16:25;2.90;;;1.70;;
15354;SDS011;7777;52.254;9.618;2022-10-16T05:18:52;5.00;;;1.57;;
15354;SDS011;7777;52.254;9.618;2022-10-16T05:21:18;3.23;;;1.63;;
15354;SDS011;7777;52.254;9.618;2022-10-16T05:23:44;4.50;;;1.97;;
15354;SDS011;7777;52.254;9.618;2022-10-16T05:26:10;2.27;;;1.70;;
15354;SDS011;7777;52.254;9.618;2022-10-16T05:28:36;3.77;;;2.00;;
15354;SDS011;7777;52.254;9.618;2022-10-16T05:31:08;6.73;;;1.77;;
15354;SDS011;7777;52.254;9.618;2022-10-16T05:33:35;3.27;;;2.07;;
15354;SDS011;7777;52.254;9.618;2022-10-16T05:36:01;11.67;;;2.03;;
15354;SDS011;7777;52.254;9.618;2022-10-16T05:38:36;7.03;;;1.80;;
15354;SDS011;7777;52.254;9.618;2022-10-16T05:41:03;3.10;;;1.90;;
15354;SDS011;7777;52.254;9.618;2022-10-16T05:43:30;7.20;;;2.00;;
15354;SDS011;7777;52.254;9.618;2022-10-16T05:45:57;5.23;;;1.53;;
15354;SDS011;7777;52.254;9.618;2022-10-16T05:48:29;5.27;;;2.30;;
15354;SDS011;7777;52.254;9.618;2022-10-16T05:51:03;2.87;;;1.77;;
15354;SDS011;7777;52.254;9.618;2022-10-16T05:53:32;6.47;;;2.03;;
15354;SDS011;7777;52.254;9.618;2022-10-16T05:56:00;4.50;;;1.93;;
15354;SDS011;7777;52.254;9.618;2022-10-16T05:58:33;5.30;;;1.50;;
15354;SDS011;7777;52.254;9.618;2022-10-16T06:01:02;6.13;;;1.90;;
15354;SDS011;7777;52.254;9.618;2022-10-16T06:03:32;11.27;;;1.60;;
15354;SDS011;7777;52.254;9.618;2022-10-16T06:05:58;2.67;;;1.47;;
15354;SDS011;7777;52.254;9.618;2022-10-16T06:08:24;4.93;;;2.17;;
15354;SDS011;7777;52.254;9.618;2022-10-16T06:11:03;11.77;;;1.93;;
15354;SDS011;7777;52.254;9.618;2022-10-16T06:13:31;5.50;;;1.60;;
15354;SDS011;7777;52.254;9.618;2022-10-16T06:15:57;2.00;;;1.47;;
15354;SDS011;7777;52.254;9.618;2022-10-16T06:18:25;5.37;;;1.40;;
15354;SDS011;7777;52.254;9.618;2022-10-16T06:20:52;5.37;;;1.60;;
15354;SDS011;7777;52.254;9.618;2022-10-16T06:23:18;1.77;;;1.20;;
15354;SDS011;7777;52.254;9.618;2022-10-16T06:25:44;2.47;;;1.60;;
15354;SDS011;7777;52.254;9.618;2022-10-16T06:28:10;2.27;;;1.40;;
15354;SDS011;7777;52.254;9.618;2022-10-16T06:30:35;2.07;;;1.50;;
15354;SDS011;7777;52.254;9.618;2022-10-16T06:33:01;2.80;;;1.33;;
15354;SDS011;7777;52.254;9.618;2022-10-16T06:35:27;3.20;;;1.83;;
15354;SDS011;7777;52.254;9.618;2022-10-16T06:37:54;10.87;;;2.50;;
15354;SDS011;7777;52.254;9.618;2022-10-16T06:40:20;9.33;;;2.33;;
15354;SDS011;7777;52.254;9.618;2022-10-16T06:42:45;5.13;;;1.87;;
15354;SDS011;7777;52.254;9.618;2022-10-16T06:45:11;1.83;;;1.40;;
15354;SDS011;7777;52.254;9.618;2022-10-16T06:47:37;8.03;;;2.10;;
15354;SDS011;7777;52.254;9.618;2022-10-16T06:50:03;4.57;;;1.80;;
15354;SDS011;7777;52.254;9.618;2022-10-16T06:52:32;2.20;;;1.57;;
15354;SDS011;7777;52.254;9.618;2022-10-16T06:54:58;5.73;;;2.10;;
15354;SDS011;7777;52.254;9.618;2022-10-16T06:57:24;3.30;;;1.97;;
15354;SDS011;7777;52.254;9.618;2022-10-16T06:59:51;10.23;;;1.73;;
15354;SDS011;7777;52.254;9.618;2022-10-16T07:02:16;3.20;;;1.70;;
15354;SDS011;7777;52.254;9.618;2022-10-16T07:04:42;1.90;;;1.53;;
15354;SDS011;7777;52.254;9.618;2022-10-16T07:07:08;6.47;;;1.63;;
15354;SDS011;7777;52.254;9.618;2022-10-16T07:09:33;4.17;;;1.63;;
15354;SDS011;7777;52.254;9.618;2022-10-16T07:11:59;12.07;;;1.80;;
15354;SDS011;7777;52.254;9.618;2022-10-16T07:14:25;5.17;;;1.90;;
15354;SDS011;7777;52.254;9.618;2022-10-16T07:16:50;5.27;;;1.60;;
15354;SDS011;7777;52.254;9.618;2022-10-16T07:19:16;5.27;;;1.53;;
15354;SDS011;7777;52.254;9.618;2022-10-16T07:21:43;5.20;;;1.57;;
15354;SDS011;7777;52.254;9.618;2022-10-16T07:24:15;2.17;;;1.37;;
15354;SDS011;7777;52.254;9.618;2022-10-16T07:26:43;4.03;;;1.10;;
15354;SDS011;7777;52.254;9.618;2022-10-16T07:29:15;2.53;;;1.47;;
15354;SDS011;7777;52.254;9.618;2022-10-16T07:31:44;2.93;;;1.70;;
15354;SDS011;7777;52.254;9.618;2022-10-16T07:34:11;2.23;;;1.30;;
15354;SDS011;7777;52.254;9.618;2022-10-16T07:36:39;3.03;;;1.37;;
15354;SDS011;7777;52.254;9.618;2022-10-16T07:39:04;3.67;;;2.23;;
15354;SDS011;7777;52.254;9.618;2022-10-16T07:41:31;4.27;;;2.57;;
15354;SDS011;7777;52.254;9.618;2022-10-16T07:43:58;1.70;;;1.20;;
15354;SDS011;7777;52.254;9.618;2022-10-16T07:46:25;2.17;;;1.70;;
15354;SDS011;7777;52.254;9.618;2022-10-16T07:48:51;4.80;;;3.30;;
15354;SDS011;7777;52.254;9.618;2022-10-16T07:51:18;10.23;;;2.30;;
15354;SDS011;7777;52.254;9.618;2022-10-16T07:53:47;3.50;;;1.77;;
15354;SDS011;7777;52.254;9.618;2022-10-16T07:56:14;5.60;;;1.40;;
15354;SDS011;7777;52.254;9.618;2022-10-16T07:58:41;3.17;;;1.27;;
15354;SDS011;7777;52.254;9.618;2022-10-16T08:01:07;7.13;;;1.47;;
15354;SDS011;7777;52.254;9.618;2022-10-16T08:03:36;5.13;;;1.53;;
15354;SDS011;7777;52.254;9.618;2022-10-16T08:06:02;1.90;;;1.30;;
15354;SDS011;7777;52.254;9.618;2022-10-16T08:08:29;2.37;;;1.33;;
15354;SDS011;7777;52.254;9.618;2022-10-16T08:10:55;1.87;;;1.20;;
15354;SDS011;7777;52.254;9.618;2022-10-16T08:13:21;3.83;;;1.40;;
15354;SDS011;7777;52.254;9.618;2022-10-16T08:15:47;6.63;;;1.10;;
15354;SDS011;7777;52.254;9.618;2022-10-16T08:18:13;2.53;;;1.10;;
15354;SDS011;7777;52.254;9.618;2022-10-16T08:20:41;2.47;;;1.20;;
15354;SDS011;7777;52.254;9.618;2022-10-16T08:23:09;3.57;;;1.30;;
15354;SDS011;7777;52.254;9.618;2022-10-16T08:25:37;1.50;;;0.93;;
15354;SDS011;7777;52.254;9.618;2022-10-16T08:28:03;1.53;;;1.00;;
15354;SDS011;7777;52.254;9.618;2022-10-16T08:30:33;1.50;;;1.00;;
15354;SDS011;7777;52.254;9.618;2022-10-16T08:33:00;1.23;;;0.97;;
15354;SDS011;7777;52.254;9.618;2022-10-16T08:35:27;3.53;;;1.00;;
15354;SDS011;7777;52.254;9.618;2022-10-16T08:37:53;2.10;;;1.20;;
15354;SDS011;7777;52.254;9.618;2022-10-16T08:40:20;2.53;;;1.00;;
15354;SDS011;7777;52.254;9.618;2022-10-16T08:45:40;1.97;;;1.30;;
15354;SDS011;7777;52.254;9.618;2022-10-16T08:51:03;1.70;;;0.90;;
15354;SDS011;7777;52.254;9.618;2022-10-16T08:53:36;24.47;;;2.70;;
15354;SDS011;7777;52.254;9.618;2022-10-16T08:56:18;2.60;;;0.93;;
15354;SDS011;7777;52.254;9.618;2022-10-16T08:58:44;2.23;;;0.90;;
15354;SDS011;7777;52.254;9.618;2022-10-16T09:01:13;1.00;;;0.90;;
15354;SDS011;7777;52.254;9.618;2022-10-16T09:06:27;2.27;;;0.90;;
15354;SDS011;7777;52.254;9.618;2022-10-16T09:09:08;1.53;;;0.90;;
15354;SDS011;7777;52.254;9.618;2022-10-16T09:18:05;3.00;;;1.00;;
15354;SDS011;7777;52.254;9.618;2022-10-16T09:20:18;1.33;;;0.80;;
15354;SDS011;7777;52.254;9.618;2022-10-16T09:23:39;1.30;;;0.70;;
15354;SDS011;7777;52.254;9.618;2022-10-16T09:25:54;2.10;;;0.87;;
15354;SDS011;7777;52.254;9.618;2022-10-16T09:28:21;3.30;;;1.10;;
15354;SDS011;7777;52.254;9.618;2022-10-16T09:30:47;1.47;;;0.80;;
15354;SDS011;7777;52.254;9.618;2022-10-16T09:33:17;1.80;;;0.70;;
15354;SDS011;7777;52.254;9.618;2022-10-16T09:35:47;2.60;;;1.07;;
15354;SDS011;7777;52.254;9.618;2022-10-16T09:38:23;4.63;;;1.30;;
15354;SDS011;7777;52.254;9.618;2022-10-16T09:40:53;0.83;;;0.70;;
15354;SDS011;7777;52.254;9.618;2022-10-16T09:43:25;2.80;;;0.80;;
15354;SDS011;7777;52.254;9.618;2022-10-16T09:48:51;3.60;;;1.17;;
15354;SDS011;7777;52.254;9.618;2022-10-16T09:51:27;2.07;;;0.90;;
15354;SDS011;7777;52.254;9.618;2022-10-16T09:54:01;2.03;;;0.80;;
15354;SDS011;7777;52.254;9.618;2022-10-16T09:56:34;3.10;;;0.87;;
15354;SDS011;7777;52.254;9.618;2022-10-16T09:59:03;1.77;;;0.80;;
15354;SDS011;7777;52.254;9.618;2022-10-16T10:01:36;3.43;;;1.00;;
15354;SDS011;7777;52.254;9.618;2022-10-16T10:04:05;2.00;;;1.03;;
15354;SDS011;7777;52.254;9.618;2022-10-16T10:06:36;3.03;;;0.70;;
15354;SDS011;7777;52.254;9.618;2022-10-16T10:17:25;1.83;;;0.90;;
15354;SDS011;7777;52.254;9.618;2022-10-16T10:23:22;2.67;;;0.90;;
15354;SDS011;7777;52.254;9.618;2022-10-16T10:25:53;3.87;;;1.10;;
15354;SDS011;7777;52.254;9.618;2022-10-16T10:29:02;4.63;;;0.73;;
15354;SDS011;7777;52.254;9.618;2022-10-16T10:34:45;2.47;;;0.70;;
15354;SDS011;7777;52.254;9.618;2022-10-16T11:07:09;8.17;;;1.03;;
15354;SDS011;7777;52.254;9.618;2022-10-16T11:10:16;4.13;;;0.80;;
15354;SDS011;7777;52.254;9.618;2022-10-16T11:12:48;2.20;;;0.93;;
15354;SDS011;7777;52.254;9.618;2022-10-16T11:15:21;4.33;;;0.67;;
15354;SDS011;7777;52.254;9.618;2022-10-16T11:17:55;3.67;;;0.70;;
15354;SDS011;7777;52.254;9.618;2022-10-16T11:20:34;4.53;;;1.07;;
15354;SDS011;7777;52.254;9.618;2022-10-16T11:23:21;3.00;;;0.80;;
15354;SDS011;7777;52.254;9.618;2022-10-16T11:26:06;7.20;;;0.63;;
15354;SDS011;7777;52.254;9.618;2022-10-16T11:28:45;8.30;;;0.87;;
15354;SDS011;7777;52.254;9.618;2022-10-16T11:31:38;3.03;;;0.90;;
15354;SDS011;7777;52.254;9.618;2022-10-16T11:37:08;5.90;;;0.93;;
15354;SDS011;7777;52.254;9.618;2022-10-16T11:39:45;6.33;;;0.80;;
15354;SDS011;7777;52.254;9.618;2022-10-16T11:42:22;1.70;;;0.80;;
15354;SDS011;7777;52.254;9.618;2022-10-16T11:53:59;1.77;;;0.63;;
15354;SDS011;7777;52.254;9.618;2022-10-16T11:56:43;4.63;;;0.60;;
15354;SDS011;7777;52.254;9.618;2022-10-16T12:05:29;1.23;;;0.60;;
15354;SDS011;7777;52.254;9.618;2022-10-16T12:08:27;3.13;;;0.70;;
15354;SDS011;7777;52.254;9.618;2022-10-16T12:10:53;4.13;;;0.70;;
15354;SDS011;7777;52.254;9.618;2022-10-16T12:13:33;1.90;;;0.57;;
15354;SDS011;7777;52.254;9.618;2022-10-16T12:16:06;2.63;;;0.70;;
15354;SDS011;7777;52.254;9.618;2022-10-16T12:18:47;2.90;;;0.63;;
15354;SDS011;7777;52.254;9.618;2022-10-16T12:21:14;6.50;;;0.80;;
15354;SDS011;7777;52.254;9.618;2022-10-16T12:23:52;2.13;;;0.30;;
15354;SDS011;7777;52.254;9.618;2022-10-16T12:26:27;4.03;;;0.67;;
15354;SDS011;7777;52.254;9.618;2022-10-16T12:29:12;1.87;;;0.67;;
15354;SDS011;7777;52.254;9.618;2022-10-16T12:31:45;1.10;;;0.57;;
15354;SDS011;7777;52.254;9.618;2022-10-16T12:37:20;2.73;;;0.67;;
15354;SDS011;7777;52.254;9.618;2022-10-16T12:39:50;2.10;;;0.70;;
15354;SDS011;7777;52.254;9.618;2022-10-16T12:42:36;3.50;;;0.77;;
15354;SDS011;7777;52.254;9.618;2022-10-16T12:45:13;2.03;;;0.90;;
15354;SDS011;7777;52.254;9.618;2022-10-16T12:47:56;3.73;;;1.10;;
15354;SDS011;7777;52.254;9.618;2022-10-16T12:53:00;3.40;;;0.63;;
15354;SDS011;7777;52.254;9.618;2022-10-16T12:55:42;1.73;;;0.70;;
15354;SDS011;7777;52.254;9.618;2022-10-16T13:06:51;2.97;;;0.70;;
15354;SDS011;7777;52.254;9.618;2022-10-16T13:15:24;2.17;;;0.63;;
15354;SDS011;7777;52.254;9.618;2022-10-16T13:18:23;3.80;;;0.70;;
15354;SDS011;7777;52.254;9.618;2022-10-16T13:26:55;1.70;;;0.70;;
15354;SDS011;7777;52.254;9.618;2022-10-16T13:29:31;2.00;;;0.77;;
15354;SDS011;7777;52.254;9.618;2022-10-16T13:31:59;3.90;;;0.70;;
15354;SDS011;7777;52.254;9.618;2022-10-16T13:34:31;1.53;;;0.63;;
15354;SDS011;7777;52.254;9.618;2022-10-16T13:36:57;3.97;;;0.60;;
15354;SDS011;7777;52.254;9.618;2022-10-16T13:39:27;2.57;;;0.93;;
15354;SDS011;7777;52.254;9.618;2022-10-16T13:44:49;4.07;;;0.80;;
15354;SDS011;7777;52.254;9.618;2022-10-16T13:47:21;3.07;;;0.70;;
15354;SDS011;7777;52.254;9.618;2022-10-16T13:52:45;2.83;;;0.73;;
15354;SDS011;7777;52.254;9.618;2022-10-16T13:55:14;4.33;;;0.60;;
15354;SDS011;7777;52.254;9.618;2022-10-16T13:57:42;1.40;;;0.60;;
15354;SDS011;7777;52.254;9.618;2022-10-16T14:02:57;2.03;;;0.57;;
15354;SDS011;7777;52.254;9.618;2022-10-16T14:05:29;3.03;;;0.70;;
15354;SDS011;7777;52.254;9.618;2022-10-16T14:07:55;2.13;;;0.67;;
15354;SDS011;7777;52.254;9.618;2022-10-16T14:10:26;1.13;;;0.40;;
15354;SDS011;7777;52.254;9.618;2022-10-16T14:12:58;1.73;;;0.87;;
15354;SDS011;7777;52.254;9.618;2022-10-16T14:15:30;5.37;;;0.97;;
15354;SDS011;7777;52.254;9.618;2022-10-16T14:17:58;1.80;;;0.67;;
15354;SDS011;7777;52.254;9.618;2022-10-16T14:20:29;3.00;;;1.27;;
15354;SDS011;7777;52.254;9.618;2022-10-16T14:23:01;1.33;;;0.60;;
15354;SDS011;7777;52.254;9.618;2022-10-16T14:25:29;2.37;;;1.10;;
15354;SDS011;7777;52.254;9.618;2022-10-16T14:30:31;1.70;;;0.60;;
15354;SDS011;7777;52.254;9.618;2022-10-16T14:33:05;2.83;;;0.60;;
15354;SDS011;7777;52.254;9.618;2022-10-16T14:35:59;1.47;;;0.50;;
15354;SDS011;7777;52.254;9.618;2022-10-16T14:38:36;3.10;;;0.73;;
15354;SDS011;7777;52.254;9.618;2022-10-16T14:41:04;2.97;;;0.70;;
15354;SDS011;7777;52.254;9.618;2022-10-16T14:46:19;3.30;;;0.67;;
15354;SDS011;7777;52.254;9.618;2022-10-16T14:48:51;3.50;;;0.60;;
15354;SDS011;7777;52.254;9.618;2022-10-16T14:51:29;2.03;;;0.80;;
15354;SDS011;7777;52.254;9.618;2022-10-16T14:53:55;4.23;;;0.70;;
15354;SDS011;7777;52.254;9.618;2022-10-16T14:56:22;3.67;;;0.80;;
15354;SDS011;7777;52.254;9.618;2022-10-16T14:58:51;2.67;;;1.03;;
15354;SDS011;7777;52.254;9.618;2022-10-16T15:01:17;2.80;;;0.50;;
15354;SDS011;7777;52.254;9.618;2022-10-16T15:03:44;2.50;;;1.00;;
15354;SDS011;7777;52.254;9.618;2022-10-16T15:06:16;4.87;;;0.80;;
15354;SDS011;7777;52.254;9.618;2022-10-16T15:08:42;5.27;;;0.60;;
15354;SDS011;7777;52.254;9.618;2022-10-16T15:11:10;3.30;;;0.80;;
15354;SDS011;7777;52.254;9.618;2022-10-16T15:13:42;3.13;;;0.80;;
15354;SDS011;7777;52.254;9.618;2022-10-16T15:16:11;1.87;;;0.60;;
15354;SDS011;7777;52.254;9.618;2022-10-16T15:18:39;8.83;;;0.60;;
15354;SDS011;7777;52.254;9.618;2022-10-16T15:21:06;4.00;;;0.80;;
15354;SDS011;7777;52.254;9.618;2022-10-16T15:23:32;2.40;;;1.10;;
15354;SDS011;7777;52.254;9.618;2022-10-16T15:25:58;3.07;;;1.07;;
15354;SDS011;7777;52.254;9.618;2022-10-16T15:28:24;2.27;;;0.60;;
15354;SDS011;7777;52.254;9.618;2022-10-16T15:30:51;1.13;;;0.67;;
15354;SDS011;7777;52.254;9.618;2022-10-16T15:33:21;3.57;;;0.83;;
15354;SDS011;7777;52.254;9.618;2022-10-16T15:35:52;4.43;;;0.90;;
15354;SDS011;7777;52.254;9.618;2022-10-16T15:38:19;2.37;;;0.93;;
15354;SDS011;7777;52.254;9.618;2022-10-16T15:40:46;2.63;;;1.40;;
15354;SDS011;7777;52.254;9.618;2022-10-16T15:43:13;4.87;;;0.97;;
15354;SDS011;7777;52.254;9.618;2022-10-16T15:45:39;2.30;;;0.83;;
15354;SDS011;7777;52.254;9.618;2022-10-16T15:48:05;1.57;;;0.83;;
15354;SDS011;7777;52.254;9.618;2022-10-16T15:50:31;1.47;;;0.70;;
15354;SDS011;7777;52.254;9.618;2022-10-16T15:52:57;2.33;;;0.70;;
15354;SDS011;7777;52.254;9.618;2022-10-16T15:55:23;6.10;;;1.00;;
15354;SDS011;7777;52.254;9.618;2022-10-16T15:57:49;5.13;;;1.10;;
15354;SDS011;7777;52.254;9.618;2022-10-16T16:00:16;6.87;;;1.53;;
15354;SDS011;7777;52.254;9.618;2022-10-16T16:02:50;6.53;;;1.90;;
15354;SDS011;7777;52.254;9.618;2022-10-16T16:05:18;4.33;;;1.90;;
15354;SDS011;7777;52.254;9.618;2022-10-16T16:07:45;11.43;;;2.73;;
15354;SDS011;7777;52.254;9.618;2022-10-16T16:10:11;6.00;;;2.03;;
15354;SDS011;7777;52.254;9.618;2022-10-16T16:12:37;4.07;;;2.10;;
15354;SDS011;7777;52.254;9.618;2022-10-16T16:15:04;8.27;;;2.60;;
15354;SDS011;7777;52.254;9.618;2022-10-16T16:17:32;9.97;;;2.80;;
15354;SDS011;7777;52.254;9.618;2022-10-16T16:19:59;5.70;;;2.10;;
15354;SDS011;7777;52.254;9.618;2022-10-16T16:22:25;7.03;;;1.90;;
15354;SDS011;7777;52.254;9.618;2022-10-16T16:24:51;10.47;;;2.23;;
15354;SDS011;7777;52.254;9.618;2022-10-16T16:27:17;2.53;;;0.97;;
15354;SDS011;7777;52.254;9.618;2022-10-16T16:29:44;6.60;;;1.07;;
15354;SDS011;7777;52.254;9.618;2022-10-16T16:32:10;9.73;;;1.43;;
15354;SDS011;7777;52.254;9.618;2022-10-16T16:34:36;2.47;;;0.60;;
15354;SDS011;7777;52.254;9.618;2022-10-16T16:37:02;5.97;;;0.90;;
15354;SDS011;7777;52.254;9.618;2022-10-16T16:39:28;3.50;;;1.13;;
15354;SDS011;7777;52.254;9.618;2022-10-16T16:41:55;2.13;;;1.00;;
15354;SDS011;7777;52.254;9.618;2022-10-16T16:44:23;3.30;;;0.80;;
15354;SDS011;7777;52.254;9.618;2022-10-16T16:46:49;12.40;;;1.10;;
15354;SDS011;7777;52.254;9.618;2022-10-16T16:49:16;5.10;;;1.27;;
15354;SDS011;7777;52.254;9.618;2022-10-16T16:51:42;10.37;;;1.40;;
15354;SDS011;7777;52.254;9.618;2022-10-16T16:54:09;4.53;;;0.97;;
15354;SDS011;7777;52.254;9.618;2022-10-16T16:56:36;6.07;;;1.00;;
15354;SDS011;7777;52.254;9.618;2022-10-16T16:59:02;3.40;;;1.20;;
15354;SDS011;7777;52.254;9.618;2022-10-16T17:01:28;3.73;;;0.93;;
15354;SDS011;7777;52.254;9.618;2022-10-16T17:03:56;6.10;;;0.87;;
15354;SDS011;7777;52.254;9.618;2022-10-16T17:06:24;6.47;;;1.10;;
15354;SDS011;7777;52.254;9.618;2022-10-16T17:08:54;4.77;;;0.90;;
15354;SDS011;7777;52.254;9.618;2022-10-16T17:11:22;6.63;;;1.40;;
15354;SDS011;7777;52.254;9.618;2022-10-16T17:13:51;8.30;;;1.37;;
15354;SDS011;7777;52.254;9.618;2022-10-16T17:16:20;2.57;;;0.90;;
15354;SDS011;7777;52.254;9.618;2022-10-16T17:18:47;4.90;;;1.20;;
15354;SDS011;7777;52.254;9.618;2022-10-16T17:21:13;3.87;;;1.10;;
15354;SDS011;7777;52.254;9.618;2022-10-16T17:23:39;3.80;;;0.97;;
15354;SDS011;7777;52.254;9.618;2022-10-16T17:26:12;11.70;;;0.80;;
15354;SDS011;7777;52.254;9.618;2022-10-16T17:28:41;4.83;;;1.03;;
15354;SDS011;7777;52.254;9.618;2022-10-16T17:31:11;3.10;;;1.10;;
15354;SDS011;7777;52.254;9.618;2022-10-16T17:33:40;3.47;;;1.20;;